sensor_id;sensor_type;location;lat;lon;timestamp;P1;durP1;ratioP1;P2;durP2;ratioP2
55212;SDS011;41083;52.932;6.674;2023-08-24T00:00:19;2.00;;;0.80;;
55212;SDS011;41083;52.932;6.674;2023-08-24T00:02:46;1.00;;;0.50;;
55212;SDS011;41083;52.932;6.674;2023-08-24T00:05:12;2.25;;;0.80;;
55212;SDS011;41083;52.932;6.674;2023-08-24T00:07:38;1.75;;;0.70;;
55212;SDS011;41083;52.932;6.674;2023-08-24T00:10:04;1.30;;;0.60;;
55212;SDS011;41083;52.932;6.674;2023-08-24T00:12:29;1.08;;;0.50;;
55212;SDS011;41083;52.932;6.674;2023-08-24T00:14:58;3.15;;;0.90;;
55212;SDS011;41083;52.932;6.674;2023-08-24T00:17:24;1.20;;;0.77;;
55212;SDS011;41083;52.932;6.674;2023-08-24T00:19:49;1.45;;;0.60;;
55212;SDS011;41083;52.932;6.674;2023-08-24T00:22:15;1.27;;;0.77;;
55212;SDS011;41083;52.932;6.674;2023-08-24T00:24:41;1.52;;;0.73;;
55212;SDS011;41083;52.932;6.674;2023-08-24T00:27:06;1.35;;;0.85;;
55212;SDS011;41083;52.932;6.674;2023-08-24T00:29:32;2.28;;;0.80;;
55212;SDS011;41083;52.932;6.674;2023-08-24T00:31:57;1.52;;;0.90;;
55212;SDS011;41083;52.932;6.674;2023-08-24T00:34:23;2.00;;;0.90;;
55212;SDS011;41083;52.932;6.674;2023-08-24T00:36:48;1.90;;;0.93;;
55212;SDS011;41083;52.932;6.674;2023-08-24T00:39:14;1.50;;;0.75;;
55212;SDS011;41083;52.932;6.674;2023-08-24T00:41:41;2.10;;;0.90;;
55212;SDS011;41083;52.932;6.674;2023-08-24T00:44:07;2.42;;;1.15;;
55212;SDS011;41083;52.932;6.674;2023-08-24T00:46:32;1.77;;;0.82;;
55212;SDS011;41083;52.932;6.674;2023-08-24T00:48:59;1.75;;;0.60;;
55212;SDS011;41083;52.932;6.674;2023-08-24T00:51:25;2.17;;;0.55;;
55212;SDS011;41083;52.932;6.674;2023-08-24T00:53:51;1.13;;;0.55;;
55212;SDS011;41083;52.932;6.674;2023-08-24T00:56:17;0.93;;;0.55;;
55212;SDS011;41083;52.932;6.674;2023-08-24T00:58:45;1.52;;;0.70;;
55212;SDS011;41083;52.932;6.674;2023-08-24T01:01:12;1.50;;;0.70;;
55212;SDS011;41083;52.932;6.674;2023-08-24T01:03:37;2.75;;;0.75;;
55212;SDS011;41083;52.932;6.674;2023-08-24T01:06:03;1.17;;;0.70;;
55212;SDS011;41083;52.932;6.674;2023-08-24T01:08:29;1.65;;;0.57;;
55212;SDS011;41083;52.932;6.674;2023-08-24T01:16:56;2.00;;;0.70;;
55212;SDS011;41083;52.932;6.674;2023-08-24T01:19:33;2.03;;;0.80;;
55212;SDS011;41083;52.932;6.674;2023-08-24T01:22:03;3.92;;;1.17;;
55212;SDS011;41083;52.932;6.674;2023-08-24T01:24:42;2.97;;;1.30;;
55212;SDS011;41083;52.932;6.674;2023-08-24T01:27:12;2.97;;;1.10;;
55212;SDS011;41083;52.932;6.674;2023-08-24T01:29:40;4.63;;;1.20;;
55212;SDS011;41083;52.932;6.674;2023-08-24T01:32:09;3.58;;;1.35;;
55212;SDS011;41083;52.932;6.674;2023-08-24T01:34:36;2.65;;;0.98;;
55212;SDS011;41083;52.932;6.674;2023-08-24T01:37:03;3.72;;;1.05;;
55212;SDS011;41083;52.932;6.674;2023-08-24T01:39:35;2.97;;;1.25;;
55212;SDS011;41083;52.932;6.674;2023-08-24T01:42:09;5.13;;;1.27;;
55212;SDS011;41083;52.932;6.674;2023-08-24T01:44:40;1.95;;;0.90;;
55212;SDS011;41083;52.932;6.674;2023-08-24T01:47:12;3.67;;;1.40;;
55212;SDS011;41083;52.932;6.674;2023-08-24T01:49:38;4.20;;;1.38;;
55212;SDS011;41083;52.932;6.674;2023-08-24T01:52:05;4.38;;;1.40;;
55212;SDS011;41083;52.932;6.674;2023-08-24T01:54:32;3.40;;;1.10;;
55212;SDS011;41083;52.932;6.674;2023-08-24T01:56:57;2.78;;;1.08;;
55212;SDS011;41083;52.932;6.674;2023-08-24T01:59:23;2.47;;;1.30;;
55212;SDS011;41083;52.932;6.674;2023-08-24T02:01:49;6.35;;;1.40;;
55212;SDS011;41083;52.932;6.674;2023-08-24T02:04:14;2.65;;;1.20;;
55212;SDS011;41083;52.932;6.674;2023-08-24T02:06:40;1.90;;;1.20;;
55212;SDS011;41083;52.932;6.674;2023-08-24T02:09:06;2.20;;;1.20;;
55212;SDS011;41083;52.932;6.674;2023-08-24T02:11:31;2.60;;;1.30;;
55212;SDS011;41083;52.932;6.674;2023-08-24T02:13:57;3.38;;;1.10;;
55212;SDS011;41083;52.932;6.674;2023-08-24T02:16:22;2.40;;;1.23;;
55212;SDS011;41083;52.932;6.674;2023-08-24T02:18:48;3.63;;;1.33;;
55212;SDS011;41083;52.932;6.674;2023-08-24T02:21:13;3.13;;;1.48;;
55212;SDS011;41083;52.932;6.674;2023-08-24T02:23:41;4.22;;;1.33;;
55212;SDS011;41083;52.932;6.674;2023-08-24T02:26:06;2.42;;;1.25;;
55212;SDS011;41083;52.932;6.674;2023-08-24T02:28:33;3.58;;;1.40;;
55212;SDS011;41083;52.932;6.674;2023-08-24T02:31:02;3.67;;;1.35;;
55212;SDS011;41083;52.932;6.674;2023-08-24T02:33:28;2.00;;;1.15;;
55212;SDS011;41083;52.932;6.674;2023-08-24T02:35:54;3.28;;;1.13;;
55212;SDS011;41083;52.932;6.674;2023-08-24T02:38:20;2.65;;;1.38;;
55212;SDS011;41083;52.932;6.674;2023-08-24T02:40:45;2.20;;;1.15;;
55212;SDS011;41083;52.932;6.674;2023-08-24T02:43:11;2.25;;;1.20;;
55212;SDS011;41083;52.932;6.674;2023-08-24T02:45:37;5.60;;;1.58;;
55212;SDS011;41083;52.932;6.674;2023-08-24T02:48:03;3.72;;;1.58;;
55212;SDS011;41083;52.932;6.674;2023-08-24T02:50:29;2.30;;;1.40;;
55212;SDS011;41083;52.932;6.674;2023-08-24T02:52:55;4.07;;;1.30;;
55212;SDS011;41083;52.932;6.674;2023-08-24T02:55:23;2.72;;;1.30;;
55212;SDS011;41083;52.932;6.674;2023-08-24T02:57:49;2.13;;;1.10;;
55212;SDS011;41083;52.932;6.674;2023-08-24T03:00:14;4.70;;;1.20;;
55212;SDS011;41083;52.932;6.674;2023-08-24T03:02:40;2.22;;;1.20;;
55212;SDS011;41083;52.932;6.674;2023-08-24T03:05:06;3.95;;;1.55;;
55212;SDS011;41083;52.932;6.674;2023-08-24T03:07:31;5.50;;;1.80;;
55212;SDS011;41083;52.932;6.674;2023-08-24T03:09:57;2.65;;;1.42;;
55212;SDS011;41083;52.932;6.674;2023-08-24T03:12:23;4.10;;;1.65;;
55212;SDS011;41083;52.932;6.674;2023-08-24T03:14:51;2.70;;;1.50;;
55212;SDS011;41083;52.932;6.674;2023-08-24T03:17:18;3.80;;;1.60;;
55212;SDS011;41083;52.932;6.674;2023-08-24T03:19:43;3.50;;;1.42;;
55212;SDS011;41083;52.932;6.674;2023-08-24T03:22:09;2.38;;;1.30;;
55212;SDS011;41083;52.932;6.674;2023-08-24T03:24:35;4.28;;;1.58;;
55212;SDS011;41083;52.932;6.674;2023-08-24T03:27:01;3.72;;;1.40;;
55212;SDS011;41083;52.932;6.674;2023-08-24T03:29:27;3.15;;;1.48;;
55212;SDS011;41083;52.932;6.674;2023-08-24T03:31:53;3.58;;;1.40;;
55212;SDS011;41083;52.932;6.674;2023-08-24T03:34:18;3.22;;;1.58;;
55212;SDS011;41083;52.932;6.674;2023-08-24T03:36:45;3.92;;;1.88;;
55212;SDS011;41083;52.932;6.674;2023-08-24T03:39:12;4.32;;;1.45;;
55212;SDS011;41083;52.932;6.674;2023-08-24T03:41:39;2.97;;;1.40;;
55212;SDS011;41083;52.932;6.674;2023-08-24T03:44:05;4.40;;;1.70;;
55212;SDS011;41083;52.932;6.674;2023-08-24T03:46:30;6.63;;;2.00;;
55212;SDS011;41083;52.932;6.674;2023-08-24T03:48:56;5.35;;;1.60;;
55212;SDS011;41083;52.932;6.674;2023-08-24T03:51:21;2.60;;;1.50;;
55212;SDS011;41083;52.932;6.674;2023-08-24T03:53:47;2.92;;;1.40;;
55212;SDS011;41083;52.932;6.674;2023-08-24T03:56:13;3.75;;;1.67;;
55212;SDS011;41083;52.932;6.674;2023-08-24T03:58:38;2.85;;;1.50;;
55212;SDS011;41083;52.932;6.674;2023-08-24T04:01:04;2.65;;;1.65;;
55212;SDS011;41083;52.932;6.674;2023-08-24T04:03:31;2.58;;;1.48;;
55212;SDS011;41083;52.932;6.674;2023-08-24T04:05:57;3.00;;;1.40;;
55212;SDS011;41083;52.932;6.674;2023-08-24T04:08:23;4.25;;;1.95;;
55212;SDS011;41083;52.932;6.674;2023-08-24T04:10:48;5.60;;;1.80;;
55212;SDS011;41083;52.932;6.674;2023-08-24T04:13:14;4.05;;;1.92;;
55212;SDS011;41083;52.932;6.674;2023-08-24T04:15:39;4.03;;;1.98;;
55212;SDS011;41083;52.932;6.674;2023-08-24T04:18:05;5.15;;;2.03;;
55212;SDS011;41083;52.932;6.674;2023-08-24T04:20:31;3.20;;;1.33;;
55212;SDS011;41083;52.932;6.674;2023-08-24T04:22:56;3.22;;;1.77;;
55212;SDS011;41083;52.932;6.674;2023-08-24T04:25:22;3.92;;;1.45;;
55212;SDS011;41083;52.932;6.674;2023-08-24T04:27:47;4.20;;;1.60;;
55212;SDS011;41083;52.932;6.674;2023-08-24T04:30:13;3.90;;;1.60;;
55212;SDS011;41083;52.932;6.674;2023-08-24T04:32:39;4.90;;;1.70;;
55212;SDS011;41083;52.932;6.674;2023-08-24T04:35:04;3.38;;;1.60;;
55212;SDS011;41083;52.932;6.674;2023-08-24T04:37:30;3.28;;;1.52;;
55212;SDS011;41083;52.932;6.674;2023-08-24T04:39:56;3.17;;;1.67;;
55212;SDS011;41083;52.932;6.674;2023-08-24T04:42:21;4.63;;;1.80;;
55212;SDS011;41083;52.932;6.674;2023-08-24T04:44:47;5.28;;;1.90;;
55212;SDS011;41083;52.932;6.674;2023-08-24T04:47:13;3.42;;;1.80;;
55212;SDS011;41083;52.932;6.674;2023-08-24T04:49:38;3.28;;;1.50;;
55212;SDS011;41083;52.932;6.674;2023-08-24T04:52:04;5.25;;;1.80;;
55212;SDS011;41083;52.932;6.674;2023-08-24T04:54:30;4.90;;;1.77;;
55212;SDS011;41083;52.932;6.674;2023-08-24T04:56:55;5.78;;;1.90;;
55212;SDS011;41083;52.932;6.674;2023-08-24T04:59:21;4.78;;;2.03;;
55212;SDS011;41083;52.932;6.674;2023-08-24T05:01:46;3.83;;;1.67;;
55212;SDS011;41083;52.932;6.674;2023-08-24T05:04:12;4.30;;;2.25;;
55212;SDS011;41083;52.932;6.674;2023-08-24T05:06:37;5.60;;;2.15;;
55212;SDS011;41083;52.932;6.674;2023-08-24T05:09:04;5.45;;;2.00;;
55212;SDS011;41083;52.932;6.674;2023-08-24T05:11:29;4.57;;;2.47;;
55212;SDS011;41083;52.932;6.674;2023-08-24T05:13:55;4.70;;;2.28;;
55212;SDS011;41083;52.932;6.674;2023-08-24T05:16:21;5.72;;;2.50;;
55212;SDS011;41083;52.932;6.674;2023-08-24T05:18:47;5.90;;;2.25;;
55212;SDS011;41083;52.932;6.674;2023-08-24T05:21:12;6.93;;;2.53;;
55212;SDS011;41083;52.932;6.674;2023-08-24T05:23:38;6.72;;;2.72;;
55212;SDS011;41083;52.932;6.674;2023-08-24T05:26:04;6.80;;;3.08;;
55212;SDS011;41083;52.932;6.674;2023-08-24T05:28:30;6.72;;;3.55;;
55212;SDS011;41083;52.932;6.674;2023-08-24T05:30:56;7.28;;;3.60;;
55212;SDS011;41083;52.932;6.674;2023-08-24T05:33:24;5.97;;;3.10;;
55212;SDS011;41083;52.932;6.674;2023-08-24T05:35:50;8.35;;;3.45;;
55212;SDS011;41083;52.932;6.674;2023-08-24T05:38:16;9.88;;;3.33;;
55212;SDS011;41083;52.932;6.674;2023-08-24T05:40:42;6.03;;;3.17;;
55212;SDS011;41083;52.932;6.674;2023-08-24T05:43:09;7.38;;;3.38;;
55212;SDS011;41083;52.932;6.674;2023-08-24T05:45:35;9.27;;;3.30;;
55212;SDS011;41083;52.932;6.674;2023-08-24T05:48:01;6.63;;;3.08;;
55212;SDS011;41083;52.932;6.674;2023-08-24T05:50:28;9.95;;;3.40;;
55212;SDS011;41083;52.932;6.674;2023-08-24T05:52:53;5.65;;;2.92;;
55212;SDS011;41083;52.932;6.674;2023-08-24T05:55:19;6.43;;;3.30;;
55212;SDS011;41083;52.932;6.674;2023-08-24T05:57:45;8.00;;;3.15;;
55212;SDS011;41083;52.932;6.674;2023-08-24T06:00:11;6.55;;;2.95;;
55212;SDS011;41083;52.932;6.674;2023-08-24T06:02:37;7.78;;;3.03;;
55212;SDS011;41083;52.932;6.674;2023-08-24T06:05:04;7.72;;;3.78;;
55212;SDS011;41083;52.932;6.674;2023-08-24T06:07:30;6.13;;;3.38;;
55212;SDS011;41083;52.932;6.674;2023-08-24T06:09:58;7.80;;;3.20;;
55212;SDS011;41083;52.932;6.674;2023-08-24T06:12:24;6.78;;;3.40;;
55212;SDS011;41083;52.932;6.674;2023-08-24T06:14:50;8.57;;;3.70;;
55212;SDS011;41083;52.932;6.674;2023-08-24T06:17:16;6.57;;;2.75;;
55212;SDS011;41083;52.932;6.674;2023-08-24T06:19:41;9.40;;;2.75;;
55212;SDS011;41083;52.932;6.674;2023-08-24T06:22:07;7.88;;;2.78;;
55212;SDS011;41083;52.932;6.674;2023-08-24T06:24:33;7.97;;;3.45;;
55212;SDS011;41083;52.932;6.674;2023-08-24T06:26:59;6.63;;;2.78;;
55212;SDS011;41083;52.932;6.674;2023-08-24T06:29:24;7.20;;;2.80;;
55212;SDS011;41083;52.932;6.674;2023-08-24T06:31:50;5.78;;;3.00;;
55212;SDS011;41083;52.932;6.674;2023-08-24T06:34:15;7.05;;;2.95;;
55212;SDS011;41083;52.932;6.674;2023-08-24T06:36:41;6.75;;;3.10;;
55212;SDS011;41083;52.932;6.674;2023-08-24T06:39:07;6.78;;;2.60;;
55212;SDS011;41083;52.932;6.674;2023-08-24T06:41:33;5.25;;;3.08;;
55212;SDS011;41083;52.932;6.674;2023-08-24T06:44:00;7.22;;;3.38;;
55212;SDS011;41083;52.932;6.674;2023-08-24T06:46:26;5.60;;;3.00;;
55212;SDS011;41083;52.932;6.674;2023-08-24T06:48:52;5.65;;;3.00;;
55212;SDS011;41083;52.932;6.674;2023-08-24T06:51:17;5.35;;;2.67;;
55212;SDS011;41083;52.932;6.674;2023-08-24T06:53:43;7.75;;;2.97;;
55212;SDS011;41083;52.932;6.674;2023-08-24T06:56:11;9.20;;;3.30;;
55212;SDS011;41083;52.932;6.674;2023-08-24T06:58:39;9.02;;;2.90;;
55212;SDS011;41083;52.932;6.674;2023-08-24T07:01:04;8.00;;;2.95;;
55212;SDS011;41083;52.932;6.674;2023-08-24T07:03:31;8.15;;;2.88;;
55212;SDS011;41083;52.932;6.674;2023-08-24T07:05:58;6.10;;;2.60;;
55212;SDS011;41083;52.932;6.674;2023-08-24T07:08:24;7.05;;;2.85;;
55212;SDS011;41083;52.932;6.674;2023-08-24T07:10:49;5.78;;;3.10;;
55212;SDS011;41083;52.932;6.674;2023-08-24T07:13:15;7.32;;;3.38;;
55212;SDS011;41083;52.932;6.674;2023-08-24T07:15:41;6.95;;;3.47;;
55212;SDS011;41083;52.932;6.674;2023-08-24T07:18:07;6.47;;;3.58;;
55212;SDS011;41083;52.932;6.674;2023-08-24T07:20:33;6.88;;;3.55;;
55212;SDS011;41083;52.932;6.674;2023-08-24T07:23:00;9.00;;;3.80;;
55212;SDS011;41083;52.932;6.674;2023-08-24T07:25:26;7.35;;;3.80;;
55212;SDS011;41083;52.932;6.674;2023-08-24T07:27:53;14.07;;;4.32;;
55212;SDS011;41083;52.932;6.674;2023-08-24T07:30:23;8.43;;;3.60;;
55212;SDS011;41083;52.932;6.674;2023-08-24T07:32:54;8.38;;;3.83;;
55212;SDS011;41083;52.932;6.674;2023-08-24T07:35:20;7.20;;;4.00;;
55212;SDS011;41083;52.932;6.674;2023-08-24T07:37:49;9.90;;;3.92;;
55212;SDS011;41083;52.932;6.674;2023-08-24T07:40:14;8.73;;;4.18;;
55212;SDS011;41083;52.932;6.674;2023-08-24T07:42:46;8.95;;;4.30;;
55212;SDS011;41083;52.932;6.674;2023-08-24T07:45:18;7.88;;;3.72;;
55212;SDS011;41083;52.932;6.674;2023-08-24T07:47:44;8.38;;;3.50;;
55212;SDS011;41083;52.932;6.674;2023-08-24T07:50:10;8.65;;;3.88;;
55212;SDS011;41083;52.932;6.674;2023-08-24T07:52:37;11.55;;;4.47;;
55212;SDS011;41083;52.932;6.674;2023-08-24T07:55:04;9.52;;;3.85;;
55212;SDS011;41083;52.932;6.674;2023-08-24T07:57:31;7.68;;;3.28;;
55212;SDS011;41083;52.932;6.674;2023-08-24T07:59:58;8.13;;;3.92;;
55212;SDS011;41083;52.932;6.674;2023-08-24T08:02:24;8.68;;;4.00;;
55212;SDS011;41083;52.932;6.674;2023-08-24T08:04:50;11.15;;;3.72;;
55212;SDS011;41083;52.932;6.674;2023-08-24T08:07:15;8.25;;;3.28;;
55212;SDS011;41083;52.932;6.674;2023-08-24T08:09:41;10.30;;;4.00;;
55212;SDS011;41083;52.932;6.674;2023-08-24T08:12:07;9.90;;;3.33;;
55212;SDS011;41083;52.932;6.674;2023-08-24T08:14:33;9.38;;;4.00;;
55212;SDS011;41083;52.932;6.674;2023-08-24T08:16:58;10.55;;;4.00;;
55212;SDS011;41083;52.932;6.674;2023-08-24T08:19:24;7.22;;;3.70;;
55212;SDS011;41083;52.932;6.674;2023-08-24T08:21:53;11.40;;;3.90;;
55212;SDS011;41083;52.932;6.674;2023-08-24T08:24:18;8.88;;;4.03;;
55212;SDS011;41083;52.932;6.674;2023-08-24T08:26:44;8.13;;;3.65;;
55212;SDS011;41083;52.932;6.674;2023-08-24T08:29:09;7.78;;;3.58;;
55212;SDS011;41083;52.932;6.674;2023-08-24T08:31:35;9.45;;;3.90;;
55212;SDS011;41083;52.932;6.674;2023-08-24T08:34:01;9.35;;;3.70;;
55212;SDS011;41083;52.932;6.674;2023-08-24T08:36:29;10.60;;;4.13;;
55212;SDS011;41083;52.932;6.674;2023-08-24T08:38:57;9.75;;;4.05;;
55212;SDS011;41083;52.932;6.674;2023-08-24T08:41:23;9.63;;;3.95;;
55212;SDS011;41083;52.932;6.674;2023-08-24T08:43:52;7.22;;;3.67;;
55212;SDS011;41083;52.932;6.674;2023-08-24T08:46:17;6.57;;;3.55;;
55212;SDS011;41083;52.932;6.674;2023-08-24T08:48:44;5.90;;;3.15;;
55212;SDS011;41083;52.932;6.674;2023-08-24T08:51:11;9.65;;;4.13;;
55212;SDS011;41083;52.932;6.674;2023-08-24T08:53:39;8.05;;;3.45;;
55212;SDS011;41083;52.932;6.674;2023-08-24T08:56:05;9.07;;;3.50;;
55212;SDS011;41083;52.932;6.674;2023-08-24T08:58:32;8.60;;;4.10;;
55212;SDS011;41083;52.932;6.674;2023-08-24T09:01:01;6.82;;;4.05;;
55212;SDS011;41083;52.932;6.674;2023-08-24T09:03:28;9.65;;;4.47;;
55212;SDS011;41083;52.932;6.674;2023-08-24T09:05:56;8.35;;;3.90;;
55212;SDS011;41083;52.932;6.674;2023-08-24T09:08:22;10.05;;;3.95;;
55212;SDS011;41083;52.932;6.674;2023-08-24T09:10:49;10.70;;;4.63;;
55212;SDS011;41083;52.932;6.674;2023-08-24T09:13:15;9.70;;;4.25;;
55212;SDS011;41083;52.932;6.674;2023-08-24T09:15:40;8.80;;;4.38;;
55212;SDS011;41083;52.932;6.674;2023-08-24T09:18:06;8.02;;;4.20;;
55212;SDS011;41083;52.932;6.674;2023-08-24T09:20:32;7.95;;;4.30;;
55212;SDS011;41083;52.932;6.674;2023-08-24T09:22:59;5.97;;;3.13;;
55212;SDS011;41083;52.932;6.674;2023-08-24T09:25:24;7.00;;;3.72;;
55212;SDS011;41083;52.932;6.674;2023-08-24T09:27:57;7.85;;;4.28;;
55212;SDS011;41083;52.932;6.674;2023-08-24T09:30:25;11.13;;;4.05;;
55212;SDS011;41083;52.932;6.674;2023-08-24T09:33:31;7.95;;;3.72;;
55212;SDS011;41083;52.932;6.674;2023-08-24T09:35:54;7.75;;;3.72;;
55212;SDS011;41083;52.932;6.674;2023-08-24T09:38:26;9.20;;;3.97;;
55212;SDS011;41083;52.932;6.674;2023-08-24T09:40:54;7.28;;;3.95;;
55212;SDS011;41083;52.932;6.674;2023-08-24T09:43:21;7.88;;;3.70;;
55212;SDS011;41083;52.932;6.674;2023-08-24T09:48:21;7.53;;;3.78;;
55212;SDS011;41083;52.932;6.674;2023-08-24T09:50:48;8.80;;;3.70;;
55212;SDS011;41083;52.932;6.674;2023-08-24T09:53:19;8.80;;;3.92;;
55212;SDS011;41083;52.932;6.674;2023-08-24T09:55:55;8.73;;;4.05;;
55212;SDS011;41083;52.932;6.674;2023-08-24T09:58:24;7.50;;;4.07;;
55212;SDS011;41083;52.932;6.674;2023-08-24T10:00:51;7.45;;;3.83;;
55212;SDS011;41083;52.932;6.674;2023-08-24T10:03:18;10.10;;;3.97;;
55212;SDS011;41083;52.932;6.674;2023-08-24T10:05:53;9.75;;;3.90;;
55212;SDS011;41083;52.932;6.674;2023-08-24T10:08:24;8.45;;;4.07;;
55212;SDS011;41083;52.932;6.674;2023-08-24T10:10:55;6.40;;;3.58;;
55212;SDS011;41083;52.932;6.674;2023-08-24T10:13:27;7.95;;;3.63;;
55212;SDS011;41083;52.932;6.674;2023-08-24T10:15:55;7.32;;;3.58;;
55212;SDS011;41083;52.932;6.674;2023-08-24T10:18:21;8.60;;;3.55;;
55212;SDS011;41083;52.932;6.674;2023-08-24T10:20:49;6.43;;;3.50;;
55212;SDS011;41083;52.932;6.674;2023-08-24T10:23:15;5.57;;;3.70;;
55212;SDS011;41083;52.932;6.674;2023-08-24T10:25:41;6.57;;;3.78;;
55212;SDS011;41083;52.932;6.674;2023-08-24T10:28:09;7.25;;;4.50;;
55212;SDS011;41083;52.932;6.674;2023-08-24T10:30:36;5.72;;;3.50;;
55212;SDS011;41083;52.932;6.674;2023-08-24T10:33:03;7.43;;;4.30;;
55212;SDS011;41083;52.932;6.674;2023-08-24T10:35:30;8.35;;;4.18;;
55212;SDS011;41083;52.932;6.674;2023-08-24T10:37:57;6.53;;;3.83;;
55212;SDS011;41083;52.932;6.674;2023-08-24T10:40:35;10.20;;;4.10;;
55212;SDS011;41083;52.932;6.674;2023-08-24T10:43:05;7.35;;;3.78;;
55212;SDS011;41083;52.932;6.674;2023-08-24T10:48:25;8.35;;;4.22;;
55212;SDS011;41083;52.932;6.674;2023-08-24T10:53:43;6.90;;;3.78;;
55212;SDS011;41083;52.932;6.674;2023-08-24T10:56:11;7.18;;;3.50;;
55212;SDS011;41083;52.932;6.674;2023-08-24T10:58:37;7.47;;;3.58;;
55212;SDS011;41083;52.932;6.674;2023-08-24T11:01:02;8.48;;;3.90;;
55212;SDS011;41083;52.932;6.674;2023-08-24T11:03:31;6.80;;;3.85;;
55212;SDS011;41083;52.932;6.674;2023-08-24T11:06:00;6.65;;;3.75;;
55212;SDS011;41083;52.932;6.674;2023-08-24T11:08:44;8.43;;;3.97;;
55212;SDS011;41083;52.932;6.674;2023-08-24T11:14:20;6.78;;;3.40;;
55212;SDS011;41083;52.932;6.674;2023-08-24T11:16:47;8.57;;;4.05;;
55212;SDS011;41083;52.932;6.674;2023-08-24T11:19:13;7.25;;;4.55;;
55212;SDS011;41083;52.932;6.674;2023-08-24T11:21:41;7.75;;;4.07;;
55212;SDS011;41083;52.932;6.674;2023-08-24T11:24:14;9.73;;;4.00;;
55212;SDS011;41083;52.932;6.674;2023-08-24T11:26:41;7.10;;;4.15;;
55212;SDS011;41083;52.932;6.674;2023-08-24T11:29:08;8.73;;;3.63;;
55212;SDS011;41083;52.932;6.674;2023-08-24T11:31:34;6.82;;;3.60;;
55212;SDS011;41083;52.932;6.674;2023-08-24T11:34:00;7.55;;;4.32;;
55212;SDS011;41083;52.932;6.674;2023-08-24T11:36:28;8.15;;;4.03;;
55212;SDS011;41083;52.932;6.674;2023-08-24T11:38:56;7.22;;;3.83;;
55212;SDS011;41083;52.932;6.674;2023-08-24T11:41:23;6.95;;;4.07;;
55212;SDS011;41083;52.932;6.674;2023-08-24T11:43:49;8.55;;;4.07;;
55212;SDS011;41083;52.932;6.674;2023-08-24T11:46:22;7.78;;;4.03;;
55212;SDS011;41083;52.932;6.674;2023-08-24T11:48:48;6.40;;;3.45;;
55212;SDS011;41083;52.932;6.674;2023-08-24T11:51:15;7.80;;;4.03;;
55212;SDS011;41083;52.932;6.674;2023-08-24T11:53:42;6.53;;;3.78;;
55212;SDS011;41083;52.932;6.674;2023-08-24T11:56:09;7.00;;;3.70;;
55212;SDS011;41083;52.932;6.674;2023-08-24T11:58:41;6.30;;;3.78;;
55212;SDS011;41083;52.932;6.674;2023-08-24T12:01:07;7.60;;;3.78;;
55212;SDS011;41083;52.932;6.674;2023-08-24T12:03:34;7.53;;;3.92;;
55212;SDS011;41083;52.932;6.674;2023-08-24T12:06:13;7.93;;;4.25;;
55212;SDS011;41083;52.932;6.674;2023-08-24T12:08:41;7.55;;;3.58;;
55212;SDS011;41083;52.932;6.674;2023-08-24T12:11:12;6.75;;;4.07;;
55212;SDS011;41083;52.932;6.674;2023-08-24T12:13:42;7.85;;;3.58;;
55212;SDS011;41083;52.932;6.674;2023-08-24T12:16:15;6.53;;;3.55;;
55212;SDS011;41083;52.932;6.674;2023-08-24T12:21:16;6.78;;;3.58;;
55212;SDS011;41083;52.932;6.674;2023-08-24T12:23:42;5.60;;;3.40;;
55212;SDS011;41083;52.932;6.674;2023-08-24T12:26:08;7.88;;;3.83;;
55212;SDS011;41083;52.932;6.674;2023-08-24T12:28:33;8.38;;;3.75;;
55212;SDS011;41083;52.932;6.674;2023-08-24T12:31:00;5.65;;;3.67;;
55212;SDS011;41083;52.932;6.674;2023-08-24T12:33:29;5.20;;;3.25;;
55212;SDS011;41083;52.932;6.674;2023-08-24T12:35:56;6.70;;;3.15;;
55212;SDS011;41083;52.932;6.674;2023-08-24T12:38:25;4.95;;;3.45;;
55212;SDS011;41083;52.932;6.674;2023-08-24T12:40:52;8.55;;;3.60;;
55212;SDS011;41083;52.932;6.674;2023-08-24T12:43:18;6.18;;;3.60;;
55212;SDS011;41083;52.932;6.674;2023-08-24T12:45:44;5.32;;;3.42;;
55212;SDS011;41083;52.932;6.674;2023-08-24T12:48:10;6.40;;;3.65;;
55212;SDS011;41083;52.932;6.674;2023-08-24T12:50:37;5.80;;;2.97;;
55212;SDS011;41083;52.932;6.674;2023-08-24T12:53:03;6.55;;;3.60;;
55212;SDS011;41083;52.932;6.674;2023-08-24T12:55:31;5.65;;;3.50;;
55212;SDS011;41083;52.932;6.674;2023-08-24T12:57:58;5.05;;;2.65;;
55212;SDS011;41083;52.932;6.674;2023-08-24T13:00:23;6.25;;;3.25;;
55212;SDS011;41083;52.932;6.674;2023-08-24T13:02:50;5.55;;;3.25;;
55212;SDS011;41083;52.932;6.674;2023-08-24T13:05:15;9.02;;;3.30;;
55212;SDS011;41083;52.932;6.674;2023-08-24T13:07:41;7.38;;;3.60;;
55212;SDS011;41083;52.932;6.674;2023-08-24T13:10:07;6.20;;;3.53;;
55212;SDS011;41083;52.932;6.674;2023-08-24T13:12:34;5.75;;;3.22;;
55212;SDS011;41083;52.932;6.674;2023-08-24T13:14:59;4.78;;;3.08;;
55212;SDS011;41083;52.932;6.674;2023-08-24T13:17:26;6.40;;;3.13;;
55212;SDS011;41083;52.932;6.674;2023-08-24T13:19:52;6.43;;;3.22;;
55212;SDS011;41083;52.932;6.674;2023-08-24T13:22:17;5.57;;;3.45;;
55212;SDS011;41083;52.932;6.674;2023-08-24T13:24:43;7.70;;;3.30;;
55212;SDS011;41083;52.932;6.674;2023-08-24T13:27:09;4.93;;;3.17;;
55212;SDS011;41083;52.932;6.674;2023-08-24T13:29:38;6.10;;;3.22;;
55212;SDS011;41083;52.932;6.674;2023-08-24T13:32:07;7.78;;;3.40;;
55212;SDS011;41083;52.932;6.674;2023-08-24T13:34:33;6.15;;;3.22;;
55212;SDS011;41083;52.932;6.674;2023-08-24T13:36:59;5.93;;;3.17;;
55212;SDS011;41083;52.932;6.674;2023-08-24T13:39:25;5.15;;;2.90;;
55212;SDS011;41083;52.932;6.674;2023-08-24T13:41:53;4.75;;;2.80;;
55212;SDS011;41083;52.932;6.674;2023-08-24T13:44:19;5.85;;;3.30;;
55212;SDS011;41083;52.932;6.674;2023-08-24T13:46:45;7.00;;;3.30;;
55212;SDS011;41083;52.932;6.674;2023-08-24T13:49:11;6.60;;;2.90;;
55212;SDS011;41083;52.932;6.674;2023-08-24T13:51:37;5.75;;;2.92;;
55212;SDS011;41083;52.932;6.674;2023-08-24T13:54:02;5.72;;;3.25;;
55212;SDS011;41083;52.932;6.674;2023-08-24T13:56:36;5.50;;;3.28;;
55212;SDS011;41083;52.932;6.674;2023-08-24T13:59:03;6.35;;;3.47;;
55212;SDS011;41083;52.932;6.674;2023-08-24T14:01:28;5.40;;;2.90;;
55212;SDS011;41083;52.932;6.674;2023-08-24T14:03:54;5.07;;;3.42;;
55212;SDS011;41083;52.932;6.674;2023-08-24T14:06:20;5.95;;;3.20;;
55212;SDS011;41083;52.932;6.674;2023-08-24T14:08:45;6.32;;;3.65;;
55212;SDS011;41083;52.932;6.674;2023-08-24T14:11:11;5.93;;;3.33;;
55212;SDS011;41083;52.932;6.674;2023-08-24T14:13:37;5.63;;;3.38;;
55212;SDS011;41083;52.932;6.674;2023-08-24T14:16:02;6.00;;;3.20;;
55212;SDS011;41083;52.932;6.674;2023-08-24T14:18:29;5.40;;;3.58;;
55212;SDS011;41083;52.932;6.674;2023-08-24T14:20:55;5.70;;;3.35;;
55212;SDS011;41083;52.932;6.674;2023-08-24T14:23:21;4.75;;;2.90;;
55212;SDS011;41083;52.932;6.674;2023-08-24T14:25:46;4.65;;;2.95;;
55212;SDS011;41083;52.932;6.674;2023-08-24T14:28:13;4.40;;;3.03;;
55212;SDS011;41083;52.932;6.674;2023-08-24T14:30:39;6.20;;;3.20;;
55212;SDS011;41083;52.932;6.674;2023-08-24T14:33:05;5.72;;;2.92;;
55212;SDS011;41083;52.932;6.674;2023-08-24T14:35:30;5.72;;;3.15;;
55212;SDS011;41083;52.932;6.674;2023-08-24T14:37:57;6.07;;;3.92;;
55212;SDS011;41083;52.932;6.674;2023-08-24T14:40:23;6.78;;;3.70;;
55212;SDS011;41083;52.932;6.674;2023-08-24T14:42:48;10.65;;;3.90;;
55212;SDS011;41083;52.932;6.674;2023-08-24T14:45:14;5.63;;;3.70;;
55212;SDS011;41083;52.932;6.674;2023-08-24T14:47:41;5.82;;;3.35;;
55212;SDS011;41083;52.932;6.674;2023-08-24T14:50:06;6.47;;;4.18;;
55212;SDS011;41083;52.932;6.674;2023-08-24T14:52:32;6.65;;;3.80;;
55212;SDS011;41083;52.932;6.674;2023-08-24T14:54:59;11.05;;;3.72;;
55212;SDS011;41083;52.932;6.674;2023-08-24T14:57:24;5.95;;;3.75;;
55212;SDS011;41083;52.932;6.674;2023-08-24T14:59:50;6.20;;;4.18;;
55212;SDS011;41083;52.932;6.674;2023-08-24T15:02:16;6.78;;;4.43;;
55212;SDS011;41083;52.932;6.674;2023-08-24T15:04:41;6.03;;;3.47;;